sensor_id;sensor_type;location;lat;lon;timestamp;pressure;altitude;pressure_sealevel;temperature;humidity
53550;BME280;67273;52.914;-0.982;2023-05-09T00:02:13;100956.50;;;20.29;52.63
53550;BME280;67273;52.914;-0.982;2023-05-09T00:04:40;100949.13;;;20.29;52.70
53550;BME280;67273;52.914;-0.982;2023-05-09T00:07:06;100945.81;;;20.27;52.67
53550;BME280;67273;52.914;-0.982;2023-05-09T00:09:32;100950.19;;;20.28;52.82
53550;BME280;67273;52.914;-0.982;2023-05-09T00:11:58;100946.66;;;20.28;52.76
53550;BME280;67273;52.914;-0.982;2023-05-09T00:14:23;100936.78;;;20.27;52.75
53550;BME280;67273;52.914;-0.982;2023-05-09T00:16:50;100937.88;;;20.26;52.59
53550;BME280;67273;52.914;-0.982;2023-05-09T00:19:15;100928.88;;;20.25;52.71
53550;BME280;67273;52.914;-0.982;2023-05-09T00:21:43;100923.41;;;20.25;52.76
53550;BME280;67273;52.914;-0.982;2023-05-09T00:24:09;100926.97;;;20.26;52.69
53550;BME280;67273;52.914;-0.982;2023-05-09T00:26:34;100919.84;;;20.25;52.71
53550;BME280;67273;52.914;-0.982;2023-05-09T00:29:00;100917.34;;;20.23;52.65
53550;BME280;67273;52.914;-0.982;2023-05-09T00:31:26;100917.34;;;20.23;52.60
53550;BME280;67273;52.914;-0.982;2023-05-09T00:33:52;100917.34;;;20.23;52.56
53550;BME280;67273;52.914;-0.982;2023-05-09T00:36:18;100910.00;;;20.24;52.63
53550;BME280;67273;52.914;-0.982;2023-05-09T00:38:46;100906.44;;;20.23;52.73
53550;BME280;67273;52.914;-0.982;2023-05-09T00:41:11;100898.53;;;20.22;52.78
53550;BME280;67273;52.914;-0.982;2023-05-09T00:43:37;100906.44;;;20.23;52.64
53550;BME280;67273;52.914;-0.982;2023-05-09T00:46:03;100896.84;;;20.21;52.72
53550;BME280;67273;52.914;-0.982;2023-05-09T00:48:29;100901.25;;;20.22;52.66
53550;BME280;67273;52.914;-0.982;2023-05-09T00:50:54;100896.84;;;20.21;52.61
53550;BME280;67273;52.914;-0.982;2023-05-09T00:53:20;100896.84;;;20.21;52.54
53550;BME280;67273;52.914;-0.982;2023-05-09T00:55:48;100887.84;;;20.20;52.64
53550;BME280;67273;52.914;-0.982;2023-05-09T00:58:14;100885.13;;;20.20;52.63
53550;BME280;67273;52.914;-0.982;2023-05-09T01:00:40;100894.38;;;20.19;52.54
53550;BME280;67273;52.914;-0.982;2023-05-09T01:03:06;100888.91;;;20.19;52.66
53550;BME280;67273;52.914;-0.982;2023-05-09T01:05:50;100887.00;;;20.20;52.64
53550;BME280;67273;52.914;-0.982;2023-05-09T01:08:27;100884.53;;;20.18;52.76
53550;BME280;67273;52.914;-0.982;2023-05-09T01:11:00;100880.97;;;20.18;52.79
53550;BME280;67273;52.914;-0.982;2023-05-09T01:13:31;100880.16;;;20.17;52.64
53550;BME280;67273;52.914;-0.982;2023-05-09T01:16:05;100890.00;;;20.18;52.79
53550;BME280;67273;52.914;-0.982;2023-05-09T01:18:39;100885.59;;;20.17;52.70
53550;BME280;67273;52.914;-0.982;2023-05-09T01:21:10;100883.94;;;20.16;52.56
53550;BME280;67273;52.914;-0.982;2023-05-09T01:23:59;100878.47;;;20.16;52.63
53550;BME280;67273;52.914;-0.982;2023-05-09T01:26:42;100876.84;;;20.15;52.59
53550;BME280;67273;52.914;-0.982;2023-05-09T01:29:28;100868.66;;;20.15;52.57
53550;BME280;67273;52.914;-0.982;2023-05-09T01:31:56;100865.94;;;20.15;52.65
53550;BME280;67273;52.914;-0.982;2023-05-09T01:34:25;100864.25;;;20.14;52.58
53550;BME280;67273;52.914;-0.982;2023-05-09T01:36:55;100861.53;;;20.14;52.61
53550;BME280;67273;52.914;-0.982;2023-05-09T01:39:23;100852.53;;;20.13;52.82
53550;BME280;67273;52.914;-0.982;2023-05-09T01:41:51;100846.25;;;20.13;52.57
53550;BME280;67273;52.914;-0.982;2023-05-09T01:44:20;100848.13;;;20.12;52.53
53550;BME280;67273;52.914;-0.982;2023-05-09T01:46:48;100843.53;;;20.13;52.50
53550;BME280;67273;52.914;-0.982;2023-05-09T01:49:16;100843.53;;;20.13;52.55
53550;BME280;67273;52.914;-0.982;2023-05-09T01:51:44;100844.59;;;20.12;52.58
53550;BME280;67273;52.914;-0.982;2023-05-09T01:54:14;100837.47;;;20.11;52.55
53550;BME280;67273;52.914;-0.982;2023-05-09T01:56:44;100842.91;;;20.11;52.61
53550;BME280;67273;52.914;-0.982;2023-05-09T01:59:16;100843.75;;;20.11;52.48
53550;BME280;67273;52.914;-0.982;2023-05-09T02:01:45;100840.19;;;20.11;52.49
53550;BME280;67273;52.914;-0.982;2023-05-09T02:04:14;100835.81;;;20.10;52.62
53550;BME280;67273;52.914;-0.982;2023-05-09T02:06:41;100836.88;;;20.09;52.63
53550;BME280;67273;52.914;-0.982;2023-05-09T02:09:09;100841.28;;;20.10;52.69
53550;BME280;67273;52.914;-0.982;2023-05-09T02:11:35;100828.69;;;20.09;52.61
53550;BME280;67273;52.914;-0.982;2023-05-09T02:14:00;100829.56;;;20.09;52.55
53550;BME280;67273;52.914;-0.982;2023-05-09T02:16:26;100833.34;;;20.08;52.56
53550;BME280;67273;52.914;-0.982;2023-05-09T02:18:54;100828.69;;;20.09;52.48
53550;BME280;67273;52.914;-0.982;2023-05-09T02:21:20;100827.06;;;20.08;52.57
53550;BME280;67273;52.914;-0.982;2023-05-09T02:23:46;100827.06;;;20.08;52.54
53550;BME280;67273;52.914;-0.982;2023-05-09T02:26:13;100823.47;;;20.07;52.46
53550;BME280;67273;52.914;-0.982;2023-05-09T02:28:40;100825.41;;;20.07;52.46
53550;BME280;67273;52.914;-0.982;2023-05-09T02:31:09;100820.75;;;20.07;52.47
53550;BME280;67273;52.914;-0.982;2023-05-09T02:33:37;100821.03;;;20.06;52.69
53550;BME280;67273;52.914;-0.982;2023-05-09T02:36:06;100825.41;;;20.07;52.46
53550;BME280;67273;52.914;-0.982;2023-05-09T02:38:33;100824.56;;;20.06;52.53
53550;BME280;67273;52.914;-0.982;2023-05-09T02:41:01;100818.31;;;20.06;52.51
53550;BME280;67273;52.914;-0.982;2023-05-09T02:43:26;100823.75;;;20.06;52.60
53550;BME280;67273;52.914;-0.982;2023-05-09T02:45:53;100822.09;;;20.05;52.51
53550;BME280;67273;52.914;-0.982;2023-05-09T02:48:19;100816.63;;;20.05;52.53
53550;BME280;67273;52.914;-0.982;2023-05-09T02:50:45;100816.63;;;20.05;52.40
53550;BME280;67273;52.914;-0.982;2023-05-09T02:53:12;100807.63;;;20.04;52.48
53550;BME280;67273;52.914;-0.982;2023-05-09T02:55:40;100814.97;;;20.04;52.59
53550;BME280;67273;52.914;-0.982;2023-05-09T02:58:06;100806.78;;;20.04;52.45
53550;BME280;67273;52.914;-0.982;2023-05-09T03:00:34;100805.16;;;20.03;52.22
53550;BME280;67273;52.914;-0.982;2023-05-09T03:03:01;100814.97;;;20.04;52.22
53550;BME280;67273;52.914;-0.982;2023-05-09T03:05:27;100806.78;;;20.04;52.55
53550;BME280;67273;52.914;-0.982;2023-05-09T03:07:52;100807.06;;;20.02;52.49
53550;BME280;67273;52.914;-0.982;2023-05-09T03:10:19;100803.47;;;20.02;52.41
53550;BME280;67273;52.914;-0.982;2023-05-09T03:12:46;100806.22;;;20.02;52.53
53550;BME280;67273;52.914;-0.982;2023-05-09T03:15:12;100803.47;;;20.02;52.49
53550;BME280;67273;52.914;-0.982;2023-05-09T03:17:39;100806.22;;;20.02;52.66
53550;BME280;67273;52.914;-0.982;2023-05-09T03:20:06;100799.94;;;20.01;52.46
53550;BME280;67273;52.914;-0.982;2023-05-09T03:22:32;100793.66;;;20.01;52.38
53550;BME280;67273;52.914;-0.982;2023-05-09T03:25:01;100792.81;;;20.00;52.38
53550;BME280;67273;52.914;-0.982;2023-05-09T03:27:29;100787.34;;;20.00;52.33
53550;BME280;67273;52.914;-0.982;2023-05-09T03:29:55;100792.00;;;20.00;52.38
53550;BME280;67273;52.914;-0.982;2023-05-09T03:32:21;100791.16;;;19.99;52.45
53550;BME280;67273;52.914;-0.982;2023-05-09T03:34:46;100790.34;;;19.99;52.39
53550;BME280;67273;52.914;-0.982;2023-05-09T03:37:12;100793.09;;;19.99;52.40
53550;BME280;67273;52.914;-0.982;2023-05-09T03:39:39;100791.41;;;19.98;52.52
53550;BME280;67273;52.914;-0.982;2023-05-09T03:42:06;100791.41;;;19.98;52.29
53550;BME280;67273;52.914;-0.982;2023-05-09T03:44:33;100787.03;;;19.97;52.52
53550;BME280;67273;52.914;-0.982;2023-05-09T03:46:59;100785.13;;;19.97;52.44
53550;BME280;67273;52.914;-0.982;2023-05-09T03:49:26;100784.28;;;19.97;52.26
53550;BME280;67273;52.914;-0.982;2023-05-09T03:51:53;100784.28;;;19.97;52.38
53550;BME280;67273;52.914;-0.982;2023-05-09T03:54:18;100785.38;;;19.96;52.32
53550;BME280;67273;52.914;-0.982;2023-05-09T03:56:46;100785.38;;;19.96;52.37
53550;BME280;67273;52.914;-0.982;2023-05-09T03:59:12;100794.38;;;19.96;52.38
53550;BME280;67273;52.914;-0.982;2023-05-09T04:01:39;100783.72;;;19.94;52.40
53550;BME280;67273;52.914;-0.982;2023-05-09T04:04:07;100782.06;;;19.93;52.40
53550;BME280;67273;52.914;-0.982;2023-05-09T04:06:35;100778.25;;;19.94;52.48
53550;BME280;67273;52.914;-0.982;2023-05-09T04:09:03;100784.81;;;19.93;52.47
53550;BME280;67273;52.914;-0.982;2023-05-09T04:11:29;100782.06;;;19.93;52.37
53550;BME280;67273;52.914;-0.982;2023-05-09T04:13:56;100781.22;;;19.93;52.35
53550;BME280;67273;52.914;-0.982;2023-05-09T04:16:29;100786.69;;;19.93;52.33
53550;BME280;67273;52.914;-0.982;2023-05-09T04:18:56;100780.41;;;19.92;52.34
53550;BME280;67273;52.914;-0.982;2023-05-09T04:21:22;100785.88;;;19.92;52.40
53550;BME280;67273;52.914;-0.982;2023-05-09T04:23:51;100788.84;;;19.91;52.51
53550;BME280;67273;52.914;-0.982;2023-05-09T04:26:22;100795.09;;;19.91;52.35
53550;BME280;67273;52.914;-0.982;2023-05-09T04:28:52;100792.66;;;19.90;52.49
53550;BME280;67273;52.914;-0.982;2023-05-09T04:31:18;100791.56;;;19.91;52.27
53550;BME280;67273;52.914;-0.982;2023-05-09T04:33:47;100780.88;;;19.89;52.36
53550;BME280;67273;52.914;-0.982;2023-05-09T04:36:14;100786.34;;;19.89;52.33
53550;BME280;67273;52.914;-0.982;2023-05-09T04:38:41;100780.88;;;19.89;52.42
53550;BME280;67273;52.914;-0.982;2023-05-09T04:41:11;100769.16;;;19.89;52.48
53550;BME280;67273;52.914;-0.982;2023-05-09T04:43:36;100776.53;;;19.88;52.25
53550;BME280;67273;52.914;-0.982;2023-05-09T04:46:02;100774.63;;;19.89;52.38
53550;BME280;67273;52.914;-0.982;2023-05-09T04:48:29;100762.03;;;19.88;52.19
53550;BME280;67273;52.914;-0.982;2023-05-09T04:50:55;100762.91;;;19.88;52.38
53550;BME280;67273;52.914;-0.982;2023-05-09T04:53:22;100757.44;;;19.88;52.24
53550;BME280;67273;52.914;-0.982;2023-05-09T04:55:48;100757.44;;;19.88;52.25
53550;BME280;67273;52.914;-0.982;2023-05-09T04:58:14;100755.78;;;19.87;52.24
53550;BME280;67273;52.914;-0.982;2023-05-09T05:00:41;100756.59;;;19.88;52.24
53550;BME280;67273;52.914;-0.982;2023-05-09T05:03:07;100751.41;;;19.86;52.16
53550;BME280;67273;52.914;-0.982;2023-05-09T05:05:33;100745.97;;;19.86;52.32
53550;BME280;67273;52.914;-0.982;2023-05-09T05:08:00;100750.31;;;19.87;52.22
53550;BME280;67273;52.914;-0.982;2023-05-09T05:10:32;100744.03;;;19.87;52.25
53550;BME280;67273;52.914;-0.982;2023-05-09T05:13:04;100745.69;;;19.88;52.28
53550;BME280;67273;52.914;-0.982;2023-05-09T05:15:30;100737.78;;;19.86;52.21
53550;BME280;67273;52.914;-0.982;2023-05-09T05:17:56;100735.88;;;19.87;52.31
53550;BME280;67273;52.914;-0.982;2023-05-09T05:20:27;100733.38;;;19.85;52.27
53550;BME280;67273;52.914;-0.982;2023-05-09T05:22:54;100729.59;;;19.86;52.34
53550;BME280;67273;52.914;-0.982;2023-05-09T05:25:21;100737.78;;;19.86;52.16
53550;BME280;67273;52.914;-0.982;2023-05-09T05:27:51;100726.88;;;19.86;52.09
53550;BME280;67273;52.914;-0.982;2023-05-09T05:30:17;100732.31;;;19.86;52.13
53550;BME280;67273;52.914;-0.982;2023-05-09T05:32:43;100735.06;;;19.86;52.10
53550;BME280;67273;52.914;-0.982;2023-05-09T05:35:11;100729.59;;;19.86;52.19
53550;BME280;67273;52.914;-0.982;2023-05-09T05:37:37;100739.66;;;19.86;52.05
53550;BME280;67273;52.914;-0.982;2023-05-09T05:40:04;100737.78;;;19.86;52.19
53550;BME280;67273;52.914;-0.982;2023-05-09T05:42:30;100740.50;;;19.86;52.09
53550;BME280;67273;52.914;-0.982;2023-05-09T05:44:57;100730.66;;;19.85;52.16
53550;BME280;67273;52.914;-0.982;2023-05-09T05:47:30;100730.66;;;19.85;51.99
53550;BME280;67273;52.914;-0.982;2023-05-09T05:49:57;100735.28;;;19.85;52.16
53550;BME280;67273;52.914;-0.982;2023-05-09T05:52:23;100742.38;;;19.86;52.10
53550;BME280;67273;52.914;-0.982;2023-05-09T05:54:49;100739.91;;;19.84;52.12
53550;BME280;67273;52.914;-0.982;2023-05-09T05:57:15;100738.00;;;19.85;52.04
53550;BME280;67273;52.914;-0.982;2023-05-09T05:59:40;100735.28;;;19.85;52.47
53550;BME280;67273;52.914;-0.982;2023-05-09T06:02:08;100738.84;;;19.85;51.93
53550;BME280;67273;52.914;-0.982;2023-05-09T06:04:34;100732.56;;;19.85;52.16
53550;BME280;67273;52.914;-0.982;2023-05-09T06:07:00;100738.84;;;19.85;52.14
53550;BME280;67273;52.914;-0.982;2023-05-09T06:09:25;100744.28;;;19.85;52.08
53550;BME280;67273;52.914;-0.982;2023-05-09T06:11:51;100740.75;;;19.85;52.00
53550;BME280;67273;52.914;-0.982;2023-05-09T06:14:18;100739.91;;;19.84;52.00
53550;BME280;67273;52.914;-0.982;2023-05-09T06:16:43;100742.63;;;19.84;52.04
53550;BME280;67273;52.914;-0.982;2023-05-09T06:19:11;100738.25;;;19.83;52.00
53550;BME280;67273;52.914;-0.982;2023-05-09T06:21:37;100745.34;;;19.84;52.15
53550;BME280;67273;52.914;-0.982;2023-05-09T06:24:03;100738.25;;;19.83;51.95
53550;BME280;67273;52.914;-0.982;2023-05-09T06:26:29;100739.06;;;19.84;51.99
53550;BME280;67273;52.914;-0.982;2023-05-09T06:28:55;100732.81;;;19.83;52.10
53550;BME280;67273;52.914;-0.982;2023-05-09T06:31:21;100728.16;;;19.84;52.04
53550;BME280;67273;52.914;-0.982;2023-05-09T06:33:47;100730.66;;;19.85;51.94
53550;BME280;67273;52.914;-0.982;2023-05-09T06:36:14;100725.44;;;19.84;52.02
53550;BME280;67273;52.914;-0.982;2023-05-09T06:38:39;100734.44;;;19.84;51.85
53550;BME280;67273;52.914;-0.982;2023-05-09T06:41:05;100728.16;;;19.84;52.10
53550;BME280;67273;52.914;-0.982;2023-05-09T06:43:31;100729.84;;;19.85;51.96
53550;BME280;67273;52.914;-0.982;2023-05-09T06:45:57;100730.66;;;19.85;51.88
53550;BME280;67273;52.914;-0.982;2023-05-09T06:48:23;100730.66;;;19.85;51.92
53550;BME280;67273;52.914;-0.982;2023-05-09T06:50:48;100720.56;;;19.86;51.95
53550;BME280;67273;52.914;-0.982;2023-05-09T06:53:16;100722.56;;;19.90;51.87
53550;BME280;67273;52.914;-0.982;2023-05-09T06:55:42;100726.53;;;20.00;51.87
53550;BME280;67273;52.914;-0.982;2023-05-09T06:58:08;100724.22;;;20.08;52.03
53550;BME280;67273;52.914;-0.982;2023-05-09T07:00:34;100731.78;;;20.18;52.16
53550;BME280;67273;52.914;-0.982;2023-05-09T07:03:00;100737.28;;;20.23;52.13
53550;BME280;67273;52.914;-0.982;2023-05-09T07:05:26;100739.19;;;20.23;52.29
53550;BME280;67273;52.914;-0.982;2023-05-09T07:07:51;100736.22;;;20.24;52.39
53550;BME280;67273;52.914;-0.982;2023-05-09T07:10:21;100734.06;;;20.26;52.53
53550;BME280;67273;52.914;-0.982;2023-05-09T07:12:46;100729.19;;;20.28;52.55
53550;BME280;67273;52.914;-0.982;2023-05-09T07:15:12;100721.56;;;20.30;52.56
53550;BME280;67273;52.914;-0.982;2023-05-09T07:17:38;100716.72;;;20.32;52.58
53550;BME280;67273;52.914;-0.982;2023-05-09T07:20:05;100713.16;;;20.32;53.57
53550;BME280;67273;52.914;-0.982;2023-05-09T07:22:31;100718.94;;;20.36;53.79
53550;BME280;67273;52.914;-0.982;2023-05-09T07:24:57;100718.19;;;20.23;53.79
53550;BME280;67273;52.914;-0.982;2023-05-09T07:27:24;100725.22;;;20.19;54.21
53550;BME280;67273;52.914;-0.982;2023-05-09T07:29:50;100721.69;;;20.19;54.36
53550;BME280;67273;52.914;-0.982;2023-05-09T07:32:17;100718.72;;;20.20;54.93
53550;BME280;67273;52.914;-0.982;2023-05-09T07:34:42;100718.72;;;20.20;55.92
53550;BME280;67273;52.914;-0.982;2023-05-09T07:37:08;100720.59;;;20.20;55.77
53550;BME280;67273;52.914;-0.982;2023-05-09T07:39:34;100731.84;;;20.23;55.80
53550;BME280;67273;52.914;-0.982;2023-05-09T07:41:59;100731.34;;;20.26;56.68
53550;BME280;67273;52.914;-0.982;2023-05-09T07:44:26;100717.78;;;20.31;57.09
53550;BME280;67273;52.914;-0.982;2023-05-09T07:46:52;100715.22;;;20.42;57.01
53550;BME280;67273;52.914;-0.982;2023-05-09T07:49:19;100716.94;;;20.48;56.88
53550;BME280;67273;52.914;-0.982;2023-05-09T07:51:45;100717.00;;;20.53;56.42
53550;BME280;67273;52.914;-0.982;2023-05-09T07:54:11;100723.91;;;20.56;56.50
53550;BME280;67273;52.914;-0.982;2023-05-09T07:56:37;100724.56;;;20.63;56.16
53550;BME280;67273;52.914;-0.982;2023-05-09T07:59:02;100727.06;;;20.64;56.07
53550;BME280;67273;52.914;-0.982;2023-05-09T08:01:30;100719.44;;;20.66;55.96
53550;BME280;67273;52.914;-0.982;2023-05-09T08:03:55;100714.53;;;20.68;55.78
53550;BME280;67273;52.914;-0.982;2023-05-09T08:06:21;100725.78;;;20.72;55.54
53550;BME280;67273;52.914;-0.982;2023-05-09T08:08:47;100725.53;;;20.74;55.38
53550;BME280;67273;52.914;-0.982;2023-05-09T08:11:12;100728.84;;;20.76;55.12
53550;BME280;67273;52.914;-0.982;2023-05-09T08:13:38;100725.63;;;20.79;55.27
53550;BME280;67273;52.914;-0.982;2023-05-09T08:16:04;100722.34;;;20.82;55.06
53550;BME280;67273;52.914;-0.982;2023-05-09T08:18:31;100716.91;;;20.82;55.02
53550;BME280;67273;52.914;-0.982;2023-05-09T08:20:57;100719.38;;;20.83;55.04
53550;BME280;67273;52.914;-0.982;2023-05-09T08:23:24;100711.75;;;20.85;54.81
53550;BME280;67273;52.914;-0.982;2023-05-09T08:25:51;100718.06;;;20.86;54.49
53550;BME280;67273;52.914;-0.982;2023-05-09T08:28:17;100714.25;;;20.87;54.66
53550;BME280;67273;52.914;-0.982;2023-05-09T08:30:43;100714.16;;;20.82;54.66
53550;BME280;67273;52.914;-0.982;2023-05-09T08:33:08;100719.88;;;20.80;54.56
53550;BME280;67273;52.914;-0.982;2023-05-09T08:35:36;100716.31;;;20.80;54.55
53550;BME280;67273;52.914;-0.982;2023-05-09T08:38:01;100711.75;;;20.85;54.55
53550;BME280;67273;52.914;-0.982;2023-05-09T08:40:28;100716.22;;;20.92;54.40
53550;BME280;67273;52.914;-0.982;2023-05-09T08:42:54;100707.78;;;20.93;54.52
53550;BME280;67273;52.914;-0.982;2023-05-09T08:45:24;100696.84;;;20.93;54.54
53550;BME280;67273;52.914;-0.982;2023-05-09T08:47:52;100692.78;;;20.96;54.40
53550;BME280;67273;52.914;-0.982;2023-05-09T08:50:18;100698.81;;;20.98;54.20
53550;BME280;67273;52.914;-0.982;2023-05-09T08:52:46;100692.84;;;21.01;54.28
53550;BME280;67273;52.914;-0.982;2023-05-09T08:55:13;100694.50;;;21.02;54.11
53550;BME280;67273;52.914;-0.982;2023-05-09T08:57:43;100700.53;;;21.04;54.05
53550;BME280;67273;52.914;-0.982;2023-05-09T09:00:11;100682.25;;;21.04;54.02
53550;BME280;67273;52.914;-0.982;2023-05-09T09:02:40;100688.25;;;21.06;53.91
53550;BME280;67273;52.914;-0.982;2023-05-09T09:05:07;100693.72;;;21.06;53.85
53550;BME280;67273;52.914;-0.982;2023-05-09T09:07:34;100679.00;;;21.07;53.87
53550;BME280;67273;52.914;-0.982;2023-05-09T09:10:03;100680.91;;;21.07;53.83
53550;BME280;67273;52.914;-0.982;2023-05-09T09:12:30;100671.88;;;21.06;53.88
53550;BME280;67273;52.914;-0.982;2023-05-09T09:15:03;100672.44;;;21.08;53.90
53550;BME280;67273;52.914;-0.982;2023-05-09T09:17:30;100661.81;;;21.12;53.82
53550;BME280;67273;52.914;-0.982;2023-05-09T09:20:00;100656.97;;;21.14;53.90
53550;BME280;67273;52.914;-0.982;2023-05-09T09:22:31;100660.00;;;21.18;53.63
53550;BME280;67273;52.914;-0.982;2023-05-09T09:24:58;100655.09;;;21.20;53.69
53550;BME280;67273;52.914;-0.982;2023-05-09T09:27:26;100654.84;;;21.21;53.68
53550;BME280;67273;52.914;-0.982;2023-05-09T09:29:54;100660.88;;;21.23;53.62
53550;BME280;67273;52.914;-0.982;2023-05-09T09:32:33;100669.38;;;21.27;53.71
53550;BME280;67273;52.914;-0.982;2023-05-09T09:35:03;100670.72;;;21.24;53.86
53550;BME280;67273;52.914;-0.982;2023-05-09T09:37:32;100658.34;;;21.17;53.72
53550;BME280;67273;52.914;-0.982;2023-05-09T09:40:00;100649.84;;;21.13;54.18
53550;BME280;67273;52.914;-0.982;2023-05-09T09:42:40;100649.53;;;21.10;54.32
53550;BME280;67273;52.914;-0.982;2023-05-09T09:45:09;100656.91;;;21.09;54.29
53550;BME280;67273;52.914;-0.982;2023-05-09T09:47:36;100660.38;;;21.04;54.39
53550;BME280;67273;52.914;-0.982;2023-05-09T09:50:12;100649.59;;;21.15;54.85
53550;BME280;67273;52.914;-0.982;2023-05-09T09:52:48;100649.88;;;21.18;55.02
53550;BME280;67273;52.914;-0.982;2023-05-09T09:55:16;100636.47;;;21.17;54.87
53550;BME280;67273;52.914;-0.982;2023-05-09T09:57:45;100637.31;;;21.17;54.97
53550;BME280;67273;52.914;-0.982;2023-05-09T10:00:13;100638.16;;;21.18;54.87
53550;BME280;67273;52.914;-0.982;2023-05-09T10:02:48;100639.78;;;21.19;54.78
53550;BME280;67273;52.914;-0.982;2023-05-09T10:05:19;100642.25;;;21.20;54.94
53550;BME280;67273;52.914;-0.982;2023-05-09T10:07:50;100639.28;;;21.22;54.99
53550;BME280;67273;52.914;-0.982;2023-05-09T10:10:18;100637.09;;;21.24;54.93
53550;BME280;67273;52.914;-0.982;2023-05-09T10:12:46;100634.94;;;21.26;54.74
53550;BME280;67273;52.914;-0.982;2023-05-09T10:15:16;100641.25;;;21.26;54.67
53550;BME280;67273;52.914;-0.982;2023-05-09T10:17:45;100639.91;;;21.29;54.49
53550;BME280;67273;52.914;-0.982;2023-05-09T10:20:11;100636.09;;;21.30;54.61
53550;BME280;67273;52.914;-0.982;2023-05-09T10:22:39;100636.09;;;21.30;54.54
53550;BME280;67273;52.914;-0.982;2023-05-09T10:25:13;100640.97;;;21.28;54.21
53550;BME280;67273;52.914;-0.982;2023-05-09T10:27:44;100647.53;;;21.27;54.12
53550;BME280;67273;52.914;-0.982;2023-05-09T10:30:17;100638.78;;;21.25;54.23
53550;BME280;67273;52.914;-0.982;2023-05-09T10:32:48;100643.63;;;21.23;54.27
53550;BME280;67273;52.914;-0.982;2023-05-09T10:35:19;100632.72;;;21.23;53.99
53550;BME280;67273;52.914;-0.982;2023-05-09T10:37:49;100631.88;;;21.22;53.86
53550;BME280;67273;52.914;-0.982;2023-05-09T10:40:14;100632.72;;;21.23;53.78
53550;BME280;67273;52.914;-0.982;2023-05-09T10:42:41;100636.53;;;21.22;53.67
53550;BME280;67273;52.914;-0.982;2023-05-09T10:45:09;100635.44;;;21.23;53.60
53550;BME280;67273;52.914;-0.982;2023-05-09T10:47:36;100642.13;;;21.10;53.06
53550;BME280;67273;52.914;-0.982;2023-05-09T10:50:03;100644.41;;;20.91;54.71
53550;BME280;67273;52.914;-0.982;2023-05-09T10:52:30;100635.81;;;20.82;54.87
53550;BME280;67273;52.914;-0.982;2023-05-09T10:54:59;100636.56;;;20.78;55.65
53550;BME280;67273;52.914;-0.982;2023-05-09T10:57:30;100643.38;;;20.75;58.09
53550;BME280;67273;52.914;-0.982;2023-05-09T11:00:00;100639.75;;;20.92;58.81
53550;BME280;67273;52.914;-0.982;2023-05-09T11:02:26;100631.22;;;21.10;57.60
53550;BME280;67273;52.914;-0.982;2023-05-09T11:05:15;100629.97;;;21.23;56.78
53550;BME280;67273;52.914;-0.982;2023-05-09T11:07:42;100631.13;;;21.27;56.56
53550;BME280;67273;52.914;-0.982;2023-05-09T11:10:14;100619.69;;;21.30;55.90
53550;BME280;67273;52.914;-0.982;2023-05-09T11:12:53;100619.16;;;21.33;55.86
53550;BME280;67273;52.914;-0.982;2023-05-09T11:15:20;100620.72;;;21.24;55.29
53550;BME280;67273;52.914;-0.982;2023-05-09T11:18:03;100618.03;;;21.29;56.21
53550;BME280;67273;52.914;-0.982;2023-05-09T11:20:42;100609.47;;;21.48;55.73
53550;BME280;67273;52.914;-0.982;2023-05-09T11:23:11;100603.28;;;21.57;55.89
53550;BME280;67273;52.914;-0.982;2023-05-09T11:25:45;100603.59;;;21.61;55.50
53550;BME280;67273;52.914;-0.982;2023-05-09T11:28:26;100587.50;;;21.37;56.07
53550;BME280;67273;52.914;-0.982;2023-05-09T11:31:07;100590.41;;;21.53;55.61
53550;BME280;67273;52.914;-0.982;2023-05-09T11:33:35;100589.94;;;21.61;55.64
53550;BME280;67273;52.914;-0.982;2023-05-09T11:36:16;100577.38;;;21.65;55.32
53550;BME280;67273;52.914;-0.982;2023-05-09T11:38:44;100574.38;;;21.67;55.28
53550;BME280;67273;52.914;-0.982;2023-05-09T11:41:10;100575.78;;;21.69;55.10
53550;BME280;67273;52.914;-0.982;2023-05-09T11:43:38;100573.63;;;21.71;54.84
53550;BME280;67273;52.914;-0.982;2023-05-09T11:46:05;100571.19;;;21.75;54.97
53550;BME280;67273;52.914;-0.982;2023-05-09T11:48:36;100562.72;;;21.76;54.45
53550;BME280;67273;52.914;-0.982;2023-05-09T11:51:03;100561.59;;;21.77;54.33
53550;BME280;67273;52.914;-0.982;2023-05-09T11:53:30;100561.09;;;21.80;54.22
53550;BME280;67273;52.914;-0.982;2023-05-09T11:56:01;100564.38;;;21.82;53.98
53550;BME280;67273;52.914;-0.982;2023-05-09T11:58:27;100557.84;;;21.83;53.90
53550;BME280;67273;52.914;-0.982;2023-05-09T12:00:53;100554.00;;;21.84;53.77
53550;BME280;67273;52.914;-0.982;2023-05-09T12:03:20;100550.19;;;21.86;53.88
53550;BME280;67273;52.914;-0.982;2023-05-09T12:05:47;100556.19;;;21.82;54.21
53550;BME280;67273;52.914;-0.982;2023-05-09T12:08:15;100552.97;;;21.91;54.05
53550;BME280;67273;52.914;-0.982;2023-05-09T12:10:44;100550.53;;;21.94;53.74
53550;BME280;67273;52.914;-0.982;2023-05-09T12:13:12;100553.47;;;21.88;53.89
53550;BME280;67273;52.914;-0.982;2023-05-09T12:15:41;100551.47;;;21.73;54.20
53550;BME280;67273;52.914;-0.982;2023-05-09T12:18:09;100547.94;;;21.45;54.70
53550;BME280;67273;52.914;-0.982;2023-05-09T12:20:40;100546.81;;;21.73;55.64
53550;BME280;67273;52.914;-0.982;2023-05-09T12:23:09;100538.97;;;21.82;55.72
53550;BME280;67273;52.914;-0.982;2023-05-09T12:25:37;100538.16;;;21.87;55.69
53550;BME280;67273;52.914;-0.982;2023-05-09T12:28:05;100536.56;;;21.91;55.33
53550;BME280;67273;52.914;-0.982;2023-05-09T12:30:33;100540.91;;;21.92;55.50
53550;BME280;67273;52.914;-0.982;2023-05-09T12:33:00;100535.44;;;21.92;55.40
53550;BME280;67273;52.914;-0.982;2023-05-09T12:35:26;100527.78;;;21.94;55.25
53550;BME280;67273;52.914;-0.982;2023-05-09T12:37:55;100528.38;;;21.96;55.10
53550;BME280;67273;52.914;-0.982;2023-05-09T12:40:22;100536.28;;;21.97;54.93
53550;BME280;67273;52.914;-0.982;2023-05-09T12:42:48;100527.81;;;21.99;54.90
53550;BME280;67273;52.914;-0.982;2023-05-09T12:45:16;100523.19;;;21.99;54.78